TimeAKST,TemperatureF,Dew PointF,Humidity,Sea Level PressureIn,VisibilityMPH,Wind Direction,Wind SpeedMPH,Gust SpeedMPH,PrecipitationIn,Events,Conditions,WindDirDegrees,DateUTC
12:16 AM,-7.6,-11.2,84,29.63,10.0,SSW,11.5,-,N/A,,Clear,200,2013-02-13 09:16:00
12:36 AM,-5.8,-11.2,77,29.63,10.0,SSW,11.5,-,N/A,,Clear,210,2013-02-13 09:36:00
12:56 AM,-7.6,-13.0,77,29.64,10.0,SW,9.2,-,N/A,,Clear,230,2013-02-13 09:56:00
1:16 AM,-9.4,-14.8,77,29.64,10.0,SW,9.2,-,N/A,,Clear,220,2013-02-13 10:16:00
1:36 AM,-7.6,-11.2,84,29.65,10.0,SW,10.4,-,N/A,,Scattered Clouds,220,2013-02-13 10:36:00
1:56 AM,-7.6,-11.2,84,29.65,10.0,SW,10.4,-,N/A,,Scattered Clouds,230,2013-02-13 10:56:00
2:16 AM,-7.6,-11.2,84,29.65,7.0,SW,8.1,-,N/A,,Partly Cloudy,230,2013-02-13 11:16:00
2:36 AM,-7.6,-13.0,77,29.66,8.0,WSW,11.5,-,N/A,,Partly Cloudy,240,2013-02-13 11:36:00
2:56 AM,-7.6,-9999,N/A,29.66,10.0,WSW,12.7,-,N/A,,Clear,240,2013-02-13 11:56:00
3:16 AM,-5.8,-9.4,84,29.66,10.0,SW,12.7,-,N/A,,Mostly Cloudy,230,2013-02-13 12:16:00
3:36 AM,-4.0,-7.6,85,29.67,10.0,WSW,10.4,-,N/A,,Overcast,240,2013-02-13 12:36:00
3:56 AM,-7.6,-11.2,84,29.67,8.0,WSW,11.5,-,N/A,,Overcast,240,2013-02-13 12:56:00
4:16 AM,-7.6,-13.0,77,29.67,6.0,WSW,9.2,-,N/A,,Scattered Clouds,240,2013-02-13 13:16:00
4:36 AM,-7.6,-13.0,77,29.67,8.0,WSW,10.4,-,N/A,,Clear,240,2013-02-13 13:36:00
4:56 AM,-9.4,-13.0,84,29.67,6.0,WSW,12.7,-,N/A,,Clear,240,2013-02-13 13:56:00
5:16 AM,-7.6,-9.4,92,29.67,3.0,WSW,13.8,-,N/A,,Partly Cloudy,250,2013-02-13 14:16:00
5:56 AM,-5.8,-11.2,77,29.67,2.5,WSW,11.5,-,N/A,,Overcast,250,2013-02-13 14:56:00
6:16 AM,-2.2,-2.2,100,29.67,2.5,West,13.8,-,N/A,,Overcast,270,2013-02-13 15:16:00
6:36 AM,-2.2,-7.6,78,29.67,4.0,West,12.7,-,N/A,,Overcast,280,2013-02-13 15:36:00
6:56 AM,-4.0,-9.4,78,29.68,8.0,West,10.4,-,N/A,,Overcast,270,2013-02-13 15:56:00
7:16 AM,-2.2,-5.8,85,29.67,5.0,WNW,12.7,-,N/A,,Overcast,300,2013-02-13 16:16:00
7:36 AM,-0.4,-4.0,85,29.69,5.0,West,10.4,-,N/A,,Overcast,280,2013-02-13 16:36:00
7:56 AM,-0.4,-4.0,85,29.70,8.0,WNW,10.4,-,N/A,,Overcast,290,2013-02-13 16:56:00
8:16 AM,-0.4,-4.0,85,29.69,5.0,WNW,12.7,-,N/A,,Overcast,300,2013-02-13 17:16:00
8:36 AM,-0.4,-4.0,85,29.70,4.0,NW,13.8,-,N/A,,Overcast,310,2013-02-13 17:36:00
8:56 AM,-2.2,-7.6,78,29.70,10.0,NW,13.8,-,N/A,,Mostly Cloudy,310,2013-02-13 17:56:00
9:16 AM,-5.8,-9.4,84,29.71,10.0,WNW,11.5,-,N/A,,Scattered Clouds,300,2013-02-13 18:16:00
9:36 AM,-7.6,-14.8,71,29.72,9.0,WNW,10.4,-,N/A,,Scattered Clouds,300,2013-02-13 18:36:00
9:56 AM,-9.4,-13.0,84,29.72,10.0,WNW,9.2,-,N/A,,Partly Cloudy,300,2013-02-13 18:56:00
10:16 AM,-11.2,-18.4,70,29.73,9.0,West,9.2,-,N/A,,Mostly Cloudy,280,2013-02-13 19:16:00
10:36 AM,-9.4,-13.0,84,29.73,10.0,West,8.1,-,N/A,,Mostly Cloudy,280,2013-02-13 19:36:00
10:56 AM,-9.4,-14.8,77,29.73,5.0,WNW,8.1,-,N/A,,Overcast,290,2013-02-13 19:56:00
11:16 AM,-5.8,-7.6,92,29.73,7.0,West,6.9,-,N/A,,Overcast,270,2013-02-13 20:16:00
11:36 AM,-5.8,-9.4,84,29.73,5.0,West,10.4,-,N/A,,Overcast,280,2013-02-13 20:36:00
11:56 AM,-5.8,-9.4,84,29.73,5.0,WNW,11.5,-,N/A,,Mostly Cloudy,290,2013-02-13 20:56:00
12:16 PM,-7.6,-11.2,84,29.74,8.0,WNW,9.2,-,N/A,,Clear,290,2013-02-13 21:16:00
12:36 PM,-7.6,-11.2,84,29.74,9.0,WNW,10.4,-,N/A,,Clear,290,2013-02-13 21:36:00
12:56 PM,-5.8,-7.6,92,29.74,9.0,WNW,10.4,-,N/A,,Clear,290,2013-02-13 21:56:00
1:16 PM,-4.0,-9.4,78,29.74,10.0,WNW,12.7,-,N/A,,Clear,300,2013-02-13 22:16:00
1:36 PM,-2.2,-7.6,78,29.74,10.0,WNW,10.4,-,N/A,,Clear,300,2013-02-13 22:36:00
1:56 PM,-2.2,-7.6,78,29.74,10.0,WNW,9.2,-,N/A,,Clear,300,2013-02-13 22:56:00
2:16 PM,-2.2,-5.8,85,29.74,10.0,NW,10.4,-,N/A,,Scattered Clouds,310,2013-02-13 23:16:00
2:36 PM,-2.2,-5.8,85,29.74,10.0,NW,11.5,-,N/A,,Mostly Cloudy,320,2013-02-13 23:36:00
2:56 PM,-2.2,-7.6,78,29.74,10.0,NW,13.8,-,N/A,,Mostly Cloudy,320,2013-02-13 23:56:00
3:16 PM,-2.2,-5.8,85,29.74,9.0,NW,11.5,-,N/A,,Scattered Clouds,310,2013-02-14 00:16:00
3:36 PM,-0.4,-5.8,78,29.74,2.5,NW,13.8,-,N/A,,Mostly Cloudy,310,2013-02-14 00:36:00
3:56 PM,-0.4,-7.6,72,29.73,2.0,WNW,16.1,-,N/A,,Overcast,300,2013-02-14 00:56:00
4:16 PM,-2.2,-7.6,78,29.73,10.0,WNW,13.8,-,N/A,,Mostly Cloudy,300,2013-02-14 01:16:00
4:36 PM,-0.4,-5.8,78,29.73,1.0,NW,16.1,-,N/A,,Overcast,310,2013-02-14 01:36:00
4:56 PM,-2.2,-7.6,78,29.73,3.0,NNW,15.0,-,N/A,,Overcast,330,2013-02-14 01:56:00
5:16 PM,-5.8,-9.4,84,29.74,10.0,NNW,13.8,-,N/A,,Partly Cloudy,330,2013-02-14 02:16:00
5:36 PM,-5.8,-9.4,84,29.74,10.0,NNW,12.7,-,N/A,,Clear,330,2013-02-14 02:36:00
5:56 PM,-5.8,-9.4,84,29.75,10.0,NNW,10.4,-,N/A,,Clear,330,2013-02-14 02:56:00
6:16 PM,-5.8,-11.2,77,29.75,10.0,NNW,10.4,-,N/A,,Clear,330,2013-02-14 03:16:00
6:36 PM,-7.6,-13.0,77,29.76,7.0,NW,8.1,-,N/A,,Partly Cloudy,320,2013-02-14 03:36:00
6:56 PM,-9.4,-14.8,77,29.76,10.0,NNW,8.1,-,N/A,,Partly Cloudy,330,2013-02-14 03:56:00
7:16 PM,-9.4,-14.8,77,29.76,10.0,NW,8.1,-,N/A,,Clear,320,2013-02-14 04:16:00
7:36 PM,-9.4,-14.8,77,29.75,10.0,NW,9.2,-,N/A,,Clear,320,2013-02-14 04:36:00
7:56 PM,-9.4,-11.2,92,29.75,10.0,NW,10.4,-,N/A,,Clear,320,2013-02-14 04:56:00
8:16 PM,-9.4,-16.6,71,29.75,10.0,NW,9.2,-,N/A,,Clear,310,2013-02-14 05:16:00
8:56 PM,-9.4,-16.6,71,29.75,10.0,NW,8.1,-,N/A,,Scattered Clouds,320,2013-02-14 05:56:00
9:16 PM,-9.4,-14.8,77,29.75,10.0,NW,10.4,-,N/A,,Scattered Clouds,310,2013-02-14 06:16:00
9:36 PM,-9.4,-14.8,77,29.75,10.0,NW,11.5,-,N/A,,Clear,310,2013-02-14 06:36:00
9:56 PM,-9.4,-13.0,84,29.75,10.0,NW,10.4,-,N/A,,Clear,310,2013-02-14 06:56:00
10:16 PM,-7.6,-11.2,84,29.75,10.0,NW,11.5,-,N/A,,Clear,310,2013-02-14 07:16:00
10:36 PM,-9.4,-14.8,77,29.74,10.0,NW,12.7,-,N/A,,Clear,310,2013-02-14 07:36:00
10:56 PM,-9.4,-13.0,84,29.75,10.0,NW,12.7,-,N/A,,Clear,310,2013-02-14 07:56:00
11:16 PM,-9.4,-14.8,77,29.74,10.0,NW,9.2,-,N/A,,Clear,310,2013-02-14 08:16:00
11:36 PM,-9.4,-14.8,77,29.74,10.0,NW,12.7,-,N/A,,Clear,310,2013-02-14 08:36:00
11:56 PM,-7.6,-9.4,92,29.74,10.0,NW,12.7,-,N/A,,Clear,310,2013-02-14 08:56:00